createdAt,value
2023-06-17T00:00:52.625Z,73.22
2023-06-17T00:03:22.305Z,73.53
2023-06-17T00:05:50.512Z,73.46
2023-06-17T00:08:18.664Z,74.20
2023-06-17T00:10:46.985Z,74.58
2023-06-17T00:13:20.960Z,74.71
2023-06-17T00:15:57.870Z,74.57
2023-06-17T00:18:28.170Z,74.62
2023-06-17T00:20:58.856Z,74.44
2023-06-17T00:23:27.437Z,74.15
2023-06-17T00:25:56.370Z,74.20
2023-06-17T00:28:24.618Z,74.01
2023-06-17T00:30:54.098Z,73.64
2023-06-17T00:33:24.307Z,74.41
2023-06-17T00:35:55.890Z,74.27
2023-06-17T00:38:24.818Z,74.89
2023-06-17T00:44:41.482Z,74.43
2023-06-17T00:47:11.700Z,75.79
2023-06-17T00:49:42.490Z,76.28
2023-06-17T00:54:45.086Z,76.07
2023-06-17T00:57:15.650Z,76.40
2023-06-17T00:59:46.051Z,76.13
2023-06-17T01:02:14.724Z,76.88
2023-06-17T01:04:44.680Z,77.40
2023-06-17T01:07:26.033Z,77.30
2023-06-17T01:10:01.222Z,77.47
2023-06-17T01:12:30.596Z,77.88
2023-06-17T01:14:59.862Z,77.54
2023-06-17T01:17:29.837Z,78.05
2023-06-17T01:20:00.018Z,78.20
2023-06-17T01:22:30.472Z,78.14
2023-06-17T01:25:02.402Z,77.33
2023-06-17T01:31:43.111Z,77.57
2023-06-17T01:34:11.911Z,78.02
2023-06-17T01:36:42.238Z,77.55
2023-06-17T01:39:16.287Z,77.50
2023-06-17T01:41:49.893Z,76.08
2023-06-17T01:44:18.587Z,77.05
2023-06-17T01:46:47.508Z,76.37
2023-06-17T01:49:17.018Z,76.41
2023-06-17T01:51:45.318Z,76.40
2023-06-17T01:54:13.741Z,78.46
2023-06-17T01:56:42.235Z,79.12
2023-06-17T01:59:11.994Z,78.92
2023-06-17T02:01:40.305Z,79.62
2023-06-17T02:04:08.552Z,79.88
2023-06-17T02:06:40.922Z,79.71
2023-06-17T02:09:09.927Z,79.82
2023-06-17T02:11:38.245Z,79.55
2023-06-17T02:17:57.572Z,79.69
2023-06-17T02:20:26.289Z,79.78
2023-06-17T02:22:54.924Z,80.03
2023-06-17T02:25:24.388Z,79.71
2023-06-17T02:27:52.732Z,79.38
2023-06-17T02:30:24.014Z,78.75
2023-06-17T02:32:52.837Z,79.21
2023-06-17T02:35:23.697Z,79.71
2023-06-17T02:37:51.964Z,80.25
2023-06-17T02:40:20.636Z,80.44
2023-06-17T02:42:52.355Z,80.05
2023-06-17T02:45:20.696Z,80.76
2023-06-17T02:47:49.230Z,80.79
2023-06-17T02:50:24.574Z,80.53
2023-06-17T02:52:57.251Z,81.28
2023-06-17T02:55:28.367Z,80.44
2023-06-17T02:57:58.108Z,79.64
2023-06-17T03:00:28.707Z,81.78
2023-06-17T03:02:57.394Z,82.74
2023-06-17T03:05:27.815Z,82.77
2023-06-17T03:07:56.220Z,80.46
2023-06-17T03:14:20.608Z,81.61
2023-06-17T03:16:49.954Z,82.27
2023-06-17T03:19:19.074Z,82.29
2023-06-17T03:21:50.332Z,82.80
2023-06-17T03:24:19.149Z,81.31
2023-06-17T03:26:48.146Z,82.35
2023-06-17T03:29:17.762Z,82.53
2023-06-17T03:31:47.470Z,82.08
2023-06-17T03:34:16.235Z,82.42
2023-06-17T03:36:49.374Z,81.79
2023-06-17T03:39:19.166Z,82.32
2023-06-17T03:41:47.699Z,82.85
2023-06-17T03:44:16.340Z,82.94
2023-06-17T03:46:45.134Z,82.04
2023-06-17T03:49:13.915Z,79.48
2023-06-17T03:51:42.167Z,78.05
2023-06-17T03:54:10.512Z,78.07
2023-06-17T03:56:41.383Z,78.13
2023-06-17T03:59:12.215Z,76.30
2023-06-17T04:01:41.541Z,75.50
2023-06-17T04:04:10.427Z,74.59
2023-06-17T04:06:38.723Z,72.87
2023-06-17T04:09:06.964Z,70.06
2023-06-17T04:11:36.321Z,69.04
2023-06-17T04:14:06.050Z,69.54
2023-06-17T04:16:36.641Z,69.26
2023-06-17T04:19:04.891Z,69.99
2023-06-17T04:21:33.148Z,71.19
2023-06-17T04:24:01.577Z,70.87
2023-06-17T04:26:30.215Z,71.46
2023-06-17T04:28:59.455Z,70.64
2023-06-17T04:31:29.568Z,70.42
2023-06-17T04:33:58.259Z,69.44
2023-06-17T04:36:26.629Z,67.86
2023-06-17T04:38:55.058Z,67.42
2023-06-17T04:41:25.149Z,67.36
2023-06-17T04:47:44.375Z,70.44
2023-06-17T04:50:17.930Z,70.22
2023-06-17T04:52:49.912Z,69.23
2023-06-17T04:55:23.080Z,67.04
2023-06-17T04:57:51.552Z,65.79
2023-06-17T05:00:58.367Z,64.76
2023-06-17T05:03:35.783Z,62.84
2023-06-17T05:06:04.148Z,62.28
2023-06-17T05:08:33.421Z,62.25
2023-06-17T05:11:02.188Z,62.26
2023-06-17T05:13:31.797Z,62.99
2023-06-17T05:16:00.992Z,61.43
2023-06-17T05:18:31.266Z,57.54
2023-06-17T05:21:01.337Z,58.24
2023-06-17T05:23:29.589Z,58.56
2023-06-17T05:25:57.988Z,59.44
2023-06-17T05:28:26.573Z,60.20
2023-06-17T05:31:32.101Z,58.79
2023-06-17T05:34:01.172Z,58.41
2023-06-17T05:36:30.861Z,57.90
2023-06-17T05:38:59.323Z,58.33
2023-06-17T05:41:27.787Z,58.23
2023-06-17T05:43:56.584Z,58.33
2023-06-17T05:46:25.366Z,57.60
2023-06-17T05:48:53.706Z,57.98
2023-06-17T05:51:22.642Z,57.83
2023-06-17T05:53:53.039Z,57.25
2023-06-17T05:56:21.534Z,56.67
2023-06-17T05:58:49.767Z,58.03
2023-06-17T06:01:27.243Z,58.15
2023-06-17T06:03:55.893Z,57.56
2023-06-17T06:06:24.450Z,59.22
2023-06-17T06:08:54.119Z,57.34
2023-06-17T06:11:23.209Z,57.36
2023-06-17T06:13:51.632Z,58.79
2023-06-17T06:20:28.331Z,57.42
2023-06-17T06:22:57.416Z,57.55
2023-06-17T06:25:27.415Z,57.13
2023-06-17T06:27:56.546Z,58.20
2023-06-17T06:30:28.568Z,60.44
2023-06-17T06:32:57.800Z,58.41
2023-06-17T06:35:27.294Z,58.96
2023-06-17T06:37:56.473Z,59.67
2023-06-17T06:40:25.328Z,57.72
2023-06-17T06:42:55.272Z,56.92
2023-06-17T06:45:40.573Z,56.80
2023-06-17T06:48:09.403Z,55.85
2023-06-17T06:50:39.164Z,56.70
2023-06-17T06:53:09.481Z,55.54
2023-06-17T06:55:37.984Z,56.00
2023-06-17T06:58:08.114Z,55.53
2023-06-17T07:00:36.955Z,56.48
2023-06-17T07:06:57.732Z,55.61
2023-06-17T07:09:31.045Z,53.04
2023-06-17T07:11:59.400Z,54.48
2023-06-17T07:14:29.259Z,53.90
2023-06-17T07:16:57.664Z,53.16
2023-06-17T07:19:26.146Z,53.41
2023-06-17T07:21:55.184Z,52.79
2023-06-17T07:24:24.333Z,54.48
2023-06-17T07:26:52.807Z,53.51
2023-06-17T07:29:21.666Z,54.56
2023-06-17T07:31:51.364Z,54.98
2023-06-17T07:34:19.646Z,51.60
2023-06-17T07:36:53.495Z,51.78
2023-06-17T07:39:21.947Z,53.81
2023-06-17T07:41:50.115Z,51.08
2023-06-17T07:44:18.923Z,51.27
2023-06-17T07:46:47.248Z,52.46
2023-06-17T07:53:04.609Z,51.13
2023-06-17T07:55:33.422Z,50.60
2023-06-17T07:58:02.311Z,50.45
2023-06-17T08:00:30.656Z,49.75
2023-06-17T08:02:59.068Z,49.77
2023-06-17T08:05:27.539Z,49.62
2023-06-17T08:07:55.729Z,51.49
2023-06-17T08:10:25.464Z,50.71
2023-06-17T08:12:53.808Z,49.68
2023-06-17T08:15:23.450Z,49.47
2023-06-17T08:17:53.884Z,50.18
2023-06-17T08:20:23.104Z,50.31
2023-06-17T08:22:51.708Z,50.65
2023-06-17T08:25:19.930Z,49.47
2023-06-17T08:27:49.646Z,49.82
2023-06-17T08:30:18.635Z,49.86
2023-06-17T08:32:47.428Z,49.09
2023-06-17T08:39:28.318Z,49.81
2023-06-17T08:41:56.841Z,50.64
2023-06-17T08:44:27.384Z,51.99
2023-06-17T08:46:57.286Z,50.59
2023-06-17T08:49:26.985Z,51.33
2023-06-17T08:51:56.223Z,50.67
2023-06-17T08:54:26.826Z,51.36
2023-06-17T08:56:55.208Z,50.79
2023-06-17T08:59:23.435Z,48.82
2023-06-17T09:01:54.404Z,49.80
2023-06-17T09:04:23.489Z,49.72
2023-06-17T09:06:52.317Z,49.01
2023-06-17T09:09:21.498Z,49.16
2023-06-17T09:11:52.801Z,49.12
2023-06-17T09:14:26.229Z,47.77
2023-06-17T09:16:55.958Z,49.26
2023-06-17T09:19:25.185Z,48.50
2023-06-17T09:25:41.650Z,47.01
2023-06-17T09:28:16.136Z,45.93
2023-06-17T09:30:45.623Z,46.67
2023-06-17T09:33:20.610Z,47.82
2023-06-17T09:35:49.239Z,47.19
2023-06-17T09:38:19.528Z,48.02
2023-06-17T09:40:51.186Z,45.98
2023-06-17T09:45:56.548Z,45.44
2023-06-17T09:48:31.012Z,45.18
2023-06-17T09:51:00.254Z,44.39
2023-06-17T09:53:30.613Z,44.97
2023-06-17T09:56:00.923Z,45.14
2023-06-17T09:58:32.006Z,46.95
2023-06-17T10:01:02.363Z,45.46
2023-06-17T10:03:32.507Z,48.47
2023-06-17T10:06:05.294Z,44.78
2023-06-17T10:09:23.167Z,43.33
2023-06-17T10:11:55.090Z,44.18
2023-06-17T10:14:26.456Z,44.49
2023-06-17T10:16:56.281Z,42.07
2023-06-17T10:19:29.978Z,41.76
2023-06-17T10:22:01.288Z,43.37
2023-06-17T10:24:30.048Z,40.55
2023-06-17T10:27:05.239Z,42.57
2023-06-17T10:29:34.845Z,42.36
2023-06-17T10:32:18.635Z,42.56
2023-06-17T10:35:13.854Z,42.52
2023-06-17T10:37:43.511Z,44.20
2023-06-17T10:40:23.708Z,41.98
2023-06-17T10:42:58.368Z,42.79
2023-06-17T10:45:27.273Z,43.52
2023-06-17T10:48:15.729Z,44.20
2023-06-17T10:50:48.773Z,42.00
2023-06-17T10:53:19.541Z,43.45
2023-06-17T10:55:47.976Z,41.07
2023-06-17T10:58:16.155Z,42.19
2023-06-17T11:00:44.969Z,41.21
2023-06-17T11:03:16.422Z,41.96
2023-06-17T11:05:48.891Z,41.73
2023-06-17T11:08:17.519Z,42.77
2023-06-17T11:10:45.796Z,39.76
2023-06-17T11:13:14.134Z,42.27
2023-06-17T11:15:42.354Z,41.41
2023-06-17T11:18:11.268Z,41.46
2023-06-17T11:20:39.818Z,41.98
2023-06-17T11:23:10.445Z,40.67
2023-06-17T11:25:45.032Z,41.25
2023-06-17T11:28:14.245Z,39.38
2023-06-17T11:30:42.810Z,40.45
2023-06-17T11:33:11.554Z,40.37
2023-06-17T11:35:40.169Z,39.90
2023-06-17T11:38:10.282Z,39.50
2023-06-17T11:44:26.279Z,39.29
2023-06-17T11:46:57.348Z,39.00
2023-06-17T11:49:29.478Z,41.39
2023-06-17T11:52:02.255Z,40.36
2023-06-17T11:54:31.889Z,39.93
2023-06-17T11:57:00.888Z,41.45
2023-06-17T11:59:30.078Z,41.41
2023-06-17T12:01:58.319Z,40.86
2023-06-17T12:04:27.029Z,38.43
2023-06-17T12:06:55.385Z,38.77
2023-06-17T12:09:23.828Z,40.30
2023-06-17T12:11:53.459Z,39.49
2023-06-17T12:14:22.029Z,36.87
2023-06-17T12:16:50.335Z,37.72
2023-06-17T12:19:23.664Z,41.36
2023-06-17T12:21:52.349Z,39.42
2023-06-17T12:24:22.163Z,39.02
2023-06-17T12:27:57.983Z,40.50
2023-06-17T12:30:27.651Z,39.32
2023-06-17T12:32:56.399Z,38.64
2023-06-17T12:35:25.808Z,39.83
2023-06-17T12:37:55.770Z,39.44
2023-06-17T12:40:24.557Z,40.51
2023-06-17T12:42:52.982Z,41.33
2023-06-17T12:45:22.954Z,40.56
2023-06-17T12:47:53.240Z,39.77
2023-06-17T12:50:21.613Z,39.83
2023-06-17T12:52:52.703Z,39.67
2023-06-17T12:55:21.252Z,38.79
2023-06-17T12:57:49.652Z,40.23
2023-06-17T13:00:18.930Z,40.03
2023-06-17T13:02:47.921Z,37.76
2023-06-17T13:05:17.838Z,35.50
2023-06-17T13:07:46.076Z,36.17
2023-06-17T13:10:14.335Z,34.75
2023-06-17T13:16:49.407Z,36.73
2023-06-17T13:19:18.427Z,37.37
2023-06-17T13:21:48.157Z,38.25
2023-06-17T13:24:16.415Z,37.74
2023-06-17T13:26:44.909Z,39.29
2023-06-17T13:29:13.205Z,37.46
2023-06-17T13:31:41.444Z,37.57
2023-06-17T13:34:09.830Z,39.12
2023-06-17T13:36:40.389Z,38.30
2023-06-17T13:39:10.596Z,38.56
2023-06-17T13:41:38.864Z,40.34
2023-06-17T13:44:09.115Z,40.42
2023-06-17T13:46:37.603Z,41.07
2023-06-17T13:49:06.009Z,40.07
2023-06-17T13:51:34.314Z,39.67
2023-06-17T13:54:02.903Z,42.21
2023-06-17T13:56:32.546Z,40.61
2023-06-17T14:03:16.435Z,39.56
2023-06-17T14:05:46.049Z,39.74
2023-06-17T14:08:14.510Z,38.86
2023-06-17T14:10:42.788Z,39.56
2023-06-17T14:13:13.142Z,40.23
2023-06-17T14:15:41.495Z,40.62
2023-06-17T14:18:09.867Z,39.88
2023-06-17T14:20:38.181Z,39.33
2023-06-17T14:23:07.513Z,39.92
2023-06-17T14:25:35.896Z,40.67
2023-06-17T14:28:05.726Z,38.94
2023-06-17T14:30:35.955Z,39.47
2023-06-17T14:33:04.334Z,39.16
2023-06-17T14:35:32.736Z,36.99
2023-06-17T14:38:00.947Z,38.39
2023-06-17T14:40:30.092Z,38.97
2023-06-17T14:42:58.471Z,39.71
2023-06-17T14:49:03.231Z,38.89
2023-06-17T14:51:31.501Z,37.44
2023-06-17T14:53:59.714Z,38.51
2023-06-17T14:56:29.110Z,39.28
2023-06-17T14:58:57.837Z,40.00
2023-06-17T15:01:34.677Z,38.35
2023-06-17T15:04:03.454Z,39.80
2023-06-17T15:06:32.705Z,38.66
2023-06-17T15:09:26.342Z,40.30
2023-06-17T15:11:56.398Z,39.60
2023-06-17T15:14:25.834Z,38.62
2023-06-17T15:16:56.798Z,39.67
2023-06-17T15:19:25.046Z,39.58
2023-06-17T15:21:53.334Z,39.68
2023-06-17T15:24:21.646Z,38.83
2023-06-17T15:26:49.989Z,38.37
2023-06-17T15:29:18.464Z,39.03
2023-06-17T15:35:39.074Z,37.46
2023-06-17T15:38:07.542Z,39.22
2023-06-17T15:40:36.209Z,38.03
2023-06-17T15:43:04.632Z,37.52
2023-06-17T15:45:32.995Z,38.73
2023-06-17T15:48:02.714Z,38.79
2023-06-17T15:50:31.094Z,38.83
2023-06-17T15:52:59.369Z,38.34
2023-06-17T15:55:27.724Z,39.20
2023-06-17T15:57:56.097Z,39.80
2023-06-17T16:00:24.595Z,38.21
2023-06-17T16:02:53.448Z,38.60
2023-06-17T16:05:23.573Z,38.88
2023-06-17T16:07:52.059Z,39.72
2023-06-17T16:10:21.349Z,40.63
2023-06-17T16:12:50.193Z,40.64
2023-06-17T16:15:18.571Z,38.59
2023-06-17T16:17:47.172Z,38.89
2023-06-17T16:20:15.543Z,38.02
2023-06-17T16:22:45.401Z,38.62
2023-06-17T16:25:13.631Z,38.50
2023-06-17T16:27:41.904Z,38.53
2023-06-17T16:30:11.176Z,36.80
2023-06-17T16:32:39.463Z,37.50
2023-06-17T16:35:09.613Z,37.22
2023-06-17T16:37:38.056Z,38.07
2023-06-17T16:40:08.903Z,37.57
2023-06-17T16:42:37.356Z,38.59
2023-06-17T16:45:06.702Z,37.75
2023-06-17T16:47:34.985Z,38.99
2023-06-17T16:50:03.252Z,39.22
2023-06-17T16:52:31.870Z,38.97
2023-06-17T16:55:01.270Z,38.33
2023-06-17T16:57:30.843Z,38.67
2023-06-17T16:59:59.224Z,38.13
2023-06-17T17:02:27.684Z,38.68
2023-06-17T17:08:56.117Z,37.74
2023-06-17T17:11:24.426Z,40.47
2023-06-17T17:13:54.024Z,40.10
2023-06-17T17:16:22.372Z,41.66
2023-06-17T17:18:50.833Z,41.34
2023-06-17T17:21:19.234Z,41.96
2023-06-17T17:23:47.709Z,41.21
2023-06-17T17:26:16.170Z,40.76
2023-06-17T17:28:44.552Z,39.67
2023-06-17T17:31:14.143Z,39.31
2023-06-17T17:33:44.511Z,39.69
2023-06-17T17:36:13.991Z,39.39
2023-06-17T17:38:43.375Z,40.55
2023-06-17T17:41:12.352Z,40.33
2023-06-17T17:43:40.997Z,39.24
2023-06-17T17:46:10.518Z,40.53
2023-06-17T17:48:40.525Z,40.40
2023-06-17T17:55:20.949Z,41.10
2023-06-17T17:57:49.231Z,41.52
2023-06-17T18:00:17.936Z,41.85
2023-06-17T18:02:47.584Z,41.25
2023-06-17T18:05:17.298Z,41.42
2023-06-17T18:07:46.934Z,42.88
2023-06-17T18:10:17.240Z,42.46
2023-06-17T18:12:45.728Z,42.41
2023-06-17T18:15:13.980Z,42.59
2023-06-17T18:17:42.574Z,43.70
2023-06-17T18:20:11.291Z,43.29
2023-06-17T18:22:41.047Z,42.77
2023-06-17T18:25:09.967Z,43.57
2023-06-17T18:27:39.733Z,43.15
2023-06-17T18:30:10.338Z,43.36
2023-06-17T18:32:38.550Z,43.15
2023-06-17T18:35:07.723Z,44.22
2023-06-17T18:41:31.369Z,43.95
2023-06-17T18:44:00.869Z,44.38
2023-06-17T18:46:29.186Z,43.91
2023-06-17T18:48:57.771Z,44.37
2023-06-17T18:51:26.142Z,44.75
2023-06-17T18:53:55.799Z,45.36
2023-06-17T18:56:24.043Z,45.00
2023-06-17T18:58:52.704Z,45.87
2023-06-17T19:01:21.033Z,47.17
2023-06-17T19:03:49.313Z,47.03
2023-06-17T19:06:17.967Z,47.37
2023-06-17T19:08:46.323Z,47.66
2023-06-17T19:11:16.485Z,48.32
2023-06-17T19:13:45.745Z,49.53
2023-06-17T19:16:14.715Z,49.47
2023-06-17T19:18:42.962Z,49.18
2023-06-17T19:21:11.272Z,49.46
2023-06-17T19:24:09.513Z,49.69
2023-06-17T19:26:39.284Z,50.62
2023-06-17T19:29:07.541Z,50.82
2023-06-17T19:31:35.907Z,53.95
2023-06-17T19:34:04.384Z,55.36
2023-06-17T19:36:32.708Z,56.59
2023-06-17T19:39:00.924Z,57.65
2023-06-17T19:41:30.684Z,58.37
2023-06-17T19:44:00.600Z,58.89
2023-06-17T19:46:29.038Z,59.50
2023-06-17T19:48:57.393Z,60.39
2023-06-17T19:51:26.152Z,60.55
2023-06-17T19:53:54.504Z,61.40
2023-06-17T19:56:24.872Z,61.26
2023-06-17T19:58:53.931Z,61.43
2023-06-17T20:01:24.385Z,62.40
2023-06-17T20:03:52.888Z,63.51
2023-06-17T20:06:21.393Z,64.34
2023-06-17T20:13:01.859Z,65.58
2023-06-17T20:15:30.550Z,65.98
2023-06-17T20:18:00.657Z,65.96
2023-06-17T20:20:31.234Z,66.79
2023-06-17T20:22:59.486Z,67.24
2023-06-17T20:25:27.747Z,66.92
2023-06-17T20:27:55.954Z,67.83
2023-06-17T20:30:24.519Z,67.19
2023-06-17T20:32:53.096Z,68.23
2023-06-17T20:35:22.809Z,67.71
2023-06-17T20:37:51.063Z,68.00
2023-06-17T20:40:19.558Z,68.81
2023-06-17T20:42:48.337Z,69.63
2023-06-17T20:45:16.908Z,69.35
2023-06-17T20:47:45.332Z,70.33
2023-06-17T20:50:13.796Z,70.34
2023-06-17T20:52:43.539Z,70.23
2023-06-17T20:59:22.485Z,71.62
2023-06-17T21:01:50.847Z,71.66
2023-06-17T21:04:19.560Z,71.15
2023-06-17T21:06:47.702Z,71.86
2023-06-17T21:09:17.299Z,72.18
2023-06-17T21:11:45.458Z,73.61
2023-06-17T21:14:14.629Z,75.37
2023-06-17T21:16:42.925Z,75.77
2023-06-17T21:19:11.643Z,75.20
2023-06-17T21:21:39.812Z,76.02
2023-06-17T21:24:08.068Z,75.82
2023-06-17T21:26:37.641Z,75.43
2023-06-17T21:29:05.874Z,74.66
2023-06-17T21:31:34.072Z,74.25
2023-06-17T21:34:02.378Z,74.71
2023-06-17T21:36:30.627Z,74.65
2023-06-17T21:38:58.968Z,73.27
2023-06-17T21:41:27.865Z,72.68
2023-06-17T21:43:57.637Z,73.32
2023-06-17T21:46:29.193Z,74.66
2023-06-17T21:48:57.766Z,74.64
2023-06-17T21:51:26.099Z,75.52
2023-06-17T21:53:54.651Z,74.80
2023-06-17T21:56:23.169Z,73.42
2023-06-17T21:58:51.330Z,74.87
2023-06-17T22:01:21.052Z,75.25
2023-06-17T22:03:49.542Z,75.42
2023-06-17T22:06:17.790Z,75.56
2023-06-17T22:08:46.000Z,75.65
2023-06-17T22:11:14.363Z,76.49
2023-06-17T22:13:42.584Z,76.68
2023-06-17T22:16:12.674Z,77.26
2023-06-17T22:18:42.672Z,76.61
2023-06-17T22:21:11.300Z,76.83
2023-06-17T22:23:39.552Z,76.34
2023-06-17T22:26:07.948Z,77.73
2023-06-17T22:32:05.257Z,77.88
2023-06-17T22:34:36.397Z,79.00
2023-06-17T22:37:05.489Z,78.63
2023-06-17T22:39:33.754Z,78.67
2023-06-17T22:42:02.026Z,79.11
2023-06-17T22:44:30.828Z,78.70
2023-06-17T22:46:59.131Z,79.29
2023-06-17T22:49:27.390Z,77.81
2023-06-17T22:51:56.962Z,77.27
2023-06-17T22:54:25.212Z,77.72
2023-06-17T22:56:53.391Z,78.50
2023-06-17T22:59:21.683Z,78.64
2023-06-17T23:01:49.922Z,79.16
2023-06-17T23:04:18.201Z,78.66
2023-06-17T23:06:46.432Z,78.12
2023-06-17T23:09:16.533Z,78.87
2023-06-17T23:11:44.919Z,80.71
2023-06-17T23:18:15.980Z,80.33
2023-06-17T23:20:45.011Z,80.74
2023-06-17T23:23:13.656Z,80.48
2023-06-17T23:25:43.779Z,80.43
2023-06-17T23:28:12.675Z,80.51
2023-06-17T23:30:41.010Z,80.31
2023-06-17T23:33:11.928Z,81.28
2023-06-17T23:35:40.200Z,79.67
2023-06-17T23:38:08.783Z,78.63
2023-06-17T23:40:37.645Z,79.38
2023-06-17T23:43:07.338Z,79.69
2023-06-17T23:45:35.530Z,78.33
2023-06-17T23:48:03.881Z,78.51
2023-06-17T23:50:32.337Z,80.09
2023-06-17T23:53:00.898Z,81.01
2023-06-17T23:55:29.060Z,81.78
2023-06-17T23:57:57.449Z,81.69
